createdAt,value
2024-02-16T00:00:49.145Z,27.30
2024-02-16T00:01:49.135Z,27.33
2024-02-16T00:02:49.321Z,27.31
2024-02-16T00:03:49.198Z,27.29
2024-02-16T00:04:49.374Z,27.28
2024-02-16T00:05:49.304Z,27.34
2024-02-16T00:06:49.396Z,27.37
2024-02-16T00:07:49.322Z,27.31
2024-02-16T00:08:49.523Z,27.33
2024-02-16T00:09:49.355Z,27.29
2024-02-16T00:10:49.487Z,27.30
2024-02-16T00:11:49.491Z,27.34
2024-02-16T00:12:49.445Z,27.29
2024-02-16T00:13:49.490Z,27.28
2024-02-16T00:14:49.568Z,27.31
2024-02-16T00:15:49.557Z,27.30
2024-02-16T00:16:49.573Z,27.30
2024-02-16T00:17:49.704Z,27.30
2024-02-16T00:18:49.974Z,27.32
2024-02-16T00:19:49.683Z,27.33
2024-02-16T00:20:49.675Z,27.34
2024-02-16T00:21:49.718Z,27.31
2024-02-16T00:22:49.731Z,27.28
2024-02-16T00:23:49.740Z,27.32
2024-02-16T00:24:49.740Z,27.29
2024-02-16T00:25:49.804Z,27.31
2024-02-16T00:26:49.879Z,27.34
2024-02-16T00:27:49.946Z,27.30
2024-02-16T00:28:49.851Z,27.32
2024-02-16T00:29:50.036Z,27.36
2024-02-16T00:30:49.906Z,27.33
2024-02-16T00:31:49.980Z,27.27
2024-02-16T00:32:50.053Z,27.30
2024-02-16T00:33:50.094Z,27.34
2024-02-16T00:34:50.038Z,27.33
2024-02-16T00:35:50.181Z,27.31
2024-02-16T00:36:50.079Z,27.32
2024-02-16T00:37:50.101Z,27.36
2024-02-16T00:38:50.154Z,27.37
2024-02-16T00:39:50.157Z,27.32
2024-02-16T00:40:50.167Z,27.34
2024-02-16T00:41:50.205Z,27.31
2024-02-16T00:42:50.217Z,27.34
2024-02-16T00:43:50.257Z,27.33
2024-02-16T00:44:50.302Z,27.31
2024-02-16T00:45:50.287Z,27.31
2024-02-16T00:46:50.325Z,27.29
2024-02-16T00:47:50.445Z,27.34
2024-02-16T00:48:50.508Z,27.34
2024-02-16T00:49:50.447Z,27.27
2024-02-16T00:50:50.490Z,27.30
2024-02-16T00:51:50.474Z,27.30
2024-02-16T00:52:50.494Z,27.27
2024-02-16T00:53:50.535Z,27.29
2024-02-16T00:54:50.553Z,27.33
2024-02-16T00:55:50.610Z,27.29
2024-02-16T00:56:50.670Z,27.30
2024-02-16T00:57:50.633Z,27.30
2024-02-16T00:58:50.679Z,27.34
2024-02-16T00:59:50.746Z,27.27
2024-02-16T01:00:50.969Z,27.33
2024-02-16T01:01:50.788Z,27.30
2024-02-16T01:02:50.794Z,27.27
2024-02-16T01:03:50.834Z,27.31
2024-02-16T01:04:51.024Z,27.30
2024-02-16T01:05:50.962Z,27.33
2024-02-16T01:06:50.883Z,27.31
2024-02-16T01:07:50.939Z,27.27
2024-02-16T01:08:50.972Z,27.30
2024-02-16T01:09:50.985Z,27.31
2024-02-16T01:10:51.016Z,27.31
2024-02-16T01:11:51.088Z,27.30
2024-02-16T01:12:51.076Z,27.30
2024-02-16T01:13:51.095Z,27.31
2024-02-16T01:14:51.161Z,27.30
2024-02-16T01:15:51.167Z,27.28
2024-02-16T01:16:51.192Z,27.30
2024-02-16T01:17:51.322Z,27.33
2024-02-16T01:18:51.474Z,27.30
2024-02-16T01:19:51.354Z,27.27
2024-02-16T01:20:51.331Z,27.34
2024-02-16T01:21:51.330Z,27.26
2024-02-16T01:22:51.382Z,27.26
2024-02-16T01:23:51.442Z,27.28
2024-02-16T01:24:51.417Z,27.28
2024-02-16T01:25:51.482Z,27.28
2024-02-16T01:26:51.493Z,27.28
2024-02-16T01:27:51.503Z,27.27
2024-02-16T01:28:51.569Z,27.31
2024-02-16T01:29:51.664Z,27.33
2024-02-16T01:30:51.557Z,27.28
2024-02-16T01:31:51.601Z,27.28
2024-02-16T01:32:51.691Z,27.27
2024-02-16T01:33:51.801Z,27.27
2024-02-16T01:34:51.821Z,27.27
2024-02-16T01:35:51.739Z,27.26
2024-02-16T01:36:51.739Z,27.26
2024-02-16T01:37:51.772Z,27.26
2024-02-16T01:38:51.824Z,27.27
2024-02-16T01:39:51.819Z,27.26
2024-02-16T01:40:51.848Z,27.28
2024-02-16T01:41:51.892Z,27.30
2024-02-16T01:42:51.893Z,27.26
2024-02-16T01:43:51.904Z,27.31
2024-02-16T01:44:51.975Z,27.28
2024-02-16T01:45:51.961Z,27.28
2024-02-16T01:46:52.016Z,27.31
2024-02-16T01:47:52.154Z,27.27
2024-02-16T01:48:52.188Z,27.27
2024-02-16T01:49:52.078Z,27.27
2024-02-16T01:50:52.151Z,27.23
2024-02-16T01:51:52.132Z,27.25
2024-02-16T01:52:52.157Z,27.28
2024-02-16T01:53:52.220Z,27.26
2024-02-16T01:54:52.218Z,27.23
2024-02-16T01:55:52.232Z,27.27
2024-02-16T01:56:52.294Z,27.23
2024-02-16T01:57:52.289Z,27.27
2024-02-16T01:58:52.307Z,27.26
2024-02-16T01:59:52.386Z,27.23
2024-02-16T02:00:52.416Z,27.20
2024-02-16T02:01:52.447Z,27.29
2024-02-16T02:02:52.469Z,27.31
2024-02-16T02:03:52.541Z,27.26
2024-02-16T02:04:52.537Z,27.26
2024-02-16T02:05:52.577Z,27.23
2024-02-16T02:06:52.629Z,27.28
2024-02-16T02:07:52.533Z,27.22
2024-02-16T02:08:52.566Z,27.23
2024-02-16T02:09:52.585Z,27.24
2024-02-16T02:10:52.661Z,27.22
2024-02-16T02:11:52.674Z,27.23
2024-02-16T02:12:52.680Z,27.23
2024-02-16T02:13:52.696Z,27.24
2024-02-16T02:14:52.756Z,27.27
2024-02-16T02:15:52.753Z,27.28
2024-02-16T02:16:58.817Z,27.22
2024-02-16T02:17:53.925Z,27.24
2024-02-16T02:18:52.870Z,27.26
2024-02-16T02:19:52.841Z,27.26
2024-02-16T02:20:52.842Z,27.22
2024-02-16T02:21:52.802Z,27.22
2024-02-16T02:22:52.809Z,27.19
2024-02-16T02:23:52.861Z,27.23
2024-02-16T02:24:52.815Z,27.23
2024-02-16T02:25:52.798Z,27.20
2024-02-16T02:26:52.845Z,27.23
2024-02-16T02:27:52.816Z,27.22
2024-02-16T02:28:52.819Z,27.20
2024-02-16T02:29:52.834Z,27.23
2024-02-16T02:30:52.806Z,27.19
2024-02-16T02:31:52.811Z,27.23
2024-02-16T02:32:52.936Z,27.23
2024-02-16T02:33:52.939Z,27.19
2024-02-16T02:34:52.813Z,27.23
2024-02-16T02:35:52.897Z,27.20
2024-02-16T02:36:52.810Z,27.15
2024-02-16T02:37:52.847Z,27.20
2024-02-16T02:38:52.898Z,27.17
2024-02-16T02:39:52.905Z,27.16
2024-02-16T02:40:52.926Z,27.22
2024-02-16T02:41:53.007Z,27.20
2024-02-16T02:42:52.965Z,27.22
2024-02-16T02:43:52.986Z,27.17
2024-02-16T02:44:53.112Z,27.22
2024-02-16T02:45:53.084Z,27.17
2024-02-16T02:46:53.057Z,27.21
2024-02-16T02:47:53.317Z,27.22
2024-02-16T02:48:53.447Z,27.20
2024-02-16T02:49:53.188Z,27.20
2024-02-16T02:50:53.228Z,27.23
2024-02-16T02:51:53.202Z,27.19
2024-02-16T02:52:53.235Z,27.21
2024-02-16T02:53:53.350Z,27.20
2024-02-16T02:54:53.320Z,27.23
2024-02-16T02:55:53.336Z,27.20
2024-02-16T02:56:53.376Z,27.23
2024-02-16T02:57:53.368Z,27.19
2024-02-16T02:58:53.421Z,27.20
2024-02-16T02:59:53.497Z,27.20
2024-02-16T03:00:53.472Z,27.22
2024-02-16T03:01:53.474Z,27.17
2024-02-16T03:02:53.494Z,27.20
2024-02-16T03:03:53.613Z,27.18
2024-02-16T03:04:53.543Z,27.19
2024-02-16T03:05:53.622Z,27.12
2024-02-16T03:06:53.670Z,27.16
2024-02-16T03:07:53.623Z,27.22
2024-02-16T03:08:53.680Z,27.16
2024-02-16T03:09:53.660Z,27.19
2024-02-16T03:10:53.714Z,27.16
2024-02-16T03:11:53.728Z,27.19
2024-02-16T03:12:53.764Z,27.17
2024-02-16T03:13:53.755Z,27.17
2024-02-16T03:14:53.808Z,27.15
2024-02-16T03:15:53.825Z,27.17
2024-02-16T03:16:53.835Z,27.17
2024-02-16T03:17:54.081Z,27.20
2024-02-16T03:18:53.946Z,27.15
2024-02-16T03:19:53.969Z,27.17
2024-02-16T03:20:53.957Z,27.16
2024-02-16T03:21:53.982Z,27.17
2024-02-16T03:22:53.981Z,27.17
2024-02-16T03:23:54.052Z,27.16
2024-02-16T03:24:54.041Z,27.16
2024-02-16T03:25:54.097Z,27.13
2024-02-16T03:26:54.145Z,27.12
2024-02-16T03:27:54.152Z,27.16
2024-02-16T03:28:54.169Z,27.16
2024-02-16T03:29:54.230Z,27.13
2024-02-16T03:30:54.252Z,27.16
2024-02-16T03:31:54.237Z,27.11
2024-02-16T03:32:54.363Z,27.19
2024-02-16T03:33:54.586Z,27.17
2024-02-16T03:34:54.394Z,27.16
2024-02-16T03:35:54.394Z,27.13
2024-02-16T03:36:54.411Z,27.17
2024-02-16T03:37:54.426Z,27.17
2024-02-16T03:38:54.503Z,27.15
2024-02-16T03:39:54.494Z,27.09
2024-02-16T03:40:54.537Z,27.19
2024-02-16T03:41:54.589Z,27.17
2024-02-16T03:42:54.616Z,27.13
2024-02-16T03:43:54.621Z,27.16
2024-02-16T03:44:54.655Z,27.15
2024-02-16T03:45:54.657Z,27.16
2024-02-16T03:46:56.863Z,27.13
2024-02-16T03:47:54.930Z,27.15
2024-02-16T03:48:54.991Z,27.13
2024-02-16T03:49:54.945Z,27.17
2024-02-16T03:50:54.871Z,27.13
2024-02-16T03:51:54.865Z,27.13
2024-02-16T03:52:54.895Z,27.16
2024-02-16T03:53:54.929Z,27.14
2024-02-16T03:54:54.943Z,27.10
2024-02-16T03:55:54.994Z,27.14
2024-02-16T03:56:55.086Z,27.13
2024-02-16T03:57:55.024Z,27.13
2024-02-16T03:58:55.070Z,27.18
2024-02-16T03:59:55.096Z,27.13
2024-02-16T04:00:55.220Z,27.15
2024-02-16T04:01:55.147Z,27.14
2024-02-16T04:02:55.211Z,27.12
2024-02-16T04:03:55.258Z,27.13
2024-02-16T04:04:55.233Z,27.11
2024-02-16T04:05:55.323Z,27.12
2024-02-16T04:06:55.308Z,27.13
2024-02-16T04:07:55.328Z,27.10
2024-02-16T04:08:55.383Z,27.15
2024-02-16T04:09:55.366Z,27.13
2024-02-16T04:10:55.444Z,27.15
2024-02-16T04:11:55.408Z,27.13
2024-02-16T04:12:55.478Z,27.13
2024-02-16T04:13:55.458Z,27.10
2024-02-16T04:14:55.518Z,27.06
2024-02-16T04:15:55.963Z,27.11
2024-02-16T04:16:55.543Z,27.11
2024-02-16T04:17:55.730Z,27.09
2024-02-16T04:18:55.839Z,27.06
2024-02-16T04:19:55.785Z,27.10
2024-02-16T04:20:55.671Z,27.10
2024-02-16T04:21:57.772Z,27.09
2024-02-16T04:22:55.713Z,27.09
2024-02-16T04:23:55.705Z,27.09
2024-02-16T04:24:55.708Z,27.10
2024-02-16T04:25:55.728Z,27.11
2024-02-16T04:26:55.729Z,27.11
2024-02-16T04:27:55.713Z,27.12
2024-02-16T04:28:55.705Z,27.09
2024-02-16T04:29:55.758Z,27.09
2024-02-16T04:30:56.027Z,27.06
2024-02-16T04:31:55.742Z,27.07
2024-02-16T04:32:55.892Z,27.10
2024-02-16T04:33:55.869Z,27.11
2024-02-16T04:34:55.790Z,27.09
2024-02-16T04:35:55.755Z,27.14
2024-02-16T04:36:55.748Z,27.10
2024-02-16T04:37:55.759Z,27.10
2024-02-16T04:38:55.774Z,27.06
2024-02-16T04:39:55.757Z,27.10
2024-02-16T04:40:55.753Z,27.11
2024-02-16T04:41:55.783Z,27.04
2024-02-16T04:42:55.776Z,27.06
2024-02-16T04:43:55.771Z,27.03
2024-02-16T04:44:55.802Z,27.02
2024-02-16T04:45:55.796Z,27.04
2024-02-16T04:46:55.766Z,27.01
2024-02-16T04:48:03.170Z,27.11
2024-02-16T04:49:03.191Z,27.06
2024-02-16T04:50:03.186Z,27.02
2024-02-16T04:51:03.162Z,27.06
2024-02-16T04:52:03.104Z,27.04
2024-02-16T04:53:03.110Z,27.06
2024-02-16T04:54:03.140Z,27.01
2024-02-16T04:55:03.098Z,27.07
2024-02-16T04:56:03.127Z,27.04
2024-02-16T04:57:03.191Z,27.06
2024-02-16T04:58:03.119Z,27.06
2024-02-16T04:59:03.189Z,27.00
2024-02-16T05:00:03.171Z,27.05
2024-02-16T05:01:03.198Z,27.04
2024-02-16T05:02:03.161Z,27.06
2024-02-16T05:03:03.220Z,27.00
2024-02-16T05:04:03.376Z,27.02
2024-02-16T05:05:04.725Z,27.00
2024-02-16T05:06:03.271Z,26.99
2024-02-16T05:07:03.240Z,27.06
2024-02-16T05:08:03.156Z,27.04
2024-02-16T05:09:03.178Z,27.00
2024-02-16T05:10:03.156Z,27.03
2024-02-16T05:11:03.181Z,27.05
2024-02-16T05:12:03.150Z,26.98
2024-02-16T05:13:03.154Z,27.02
2024-02-16T05:14:03.153Z,27.02
2024-02-16T05:15:03.204Z,27.02
2024-02-16T05:16:03.155Z,27.03
2024-02-16T05:17:03.149Z,26.99
2024-02-16T05:18:03.922Z,27.01
2024-02-16T05:19:03.367Z,27.04
2024-02-16T05:20:03.233Z,27.02
2024-02-16T05:21:03.223Z,27.04
2024-02-16T05:22:03.177Z,27.03
2024-02-16T05:23:03.181Z,27.03
2024-02-16T05:24:03.191Z,27.03
2024-02-16T05:25:03.162Z,27.02
2024-02-16T05:26:03.179Z,27.02
2024-02-16T05:27:03.213Z,27.00
2024-02-16T05:28:03.210Z,27.04
2024-02-16T05:29:03.215Z,27.02
2024-02-16T05:30:03.283Z,27.00
2024-02-16T05:31:03.242Z,27.04
2024-02-16T05:32:03.328Z,27.03
2024-02-16T05:33:03.339Z,27.07
2024-02-16T05:34:03.383Z,27.03
2024-02-16T05:35:03.385Z,27.02
2024-02-16T05:36:03.398Z,27.01
2024-02-16T05:37:03.404Z,27.00
2024-02-16T05:38:03.418Z,27.03
2024-02-16T05:39:03.498Z,27.07
2024-02-16T05:40:03.473Z,27.03
2024-02-16T05:41:03.503Z,27.01
2024-02-16T05:42:03.555Z,27.04
2024-02-16T05:43:03.561Z,27.00
2024-02-16T05:44:03.579Z,27.00
2024-02-16T05:45:03.655Z,27.00
2024-02-16T05:46:03.667Z,27.00
2024-02-16T05:47:03.678Z,27.03
2024-02-16T05:48:03.785Z,27.03
2024-02-16T05:49:04.019Z,27.01
2024-02-16T05:50:03.883Z,27.02
2024-02-16T05:51:03.932Z,27.03
2024-02-16T05:52:04.247Z,27.01
2024-02-16T05:53:03.862Z,27.04
2024-02-16T05:54:03.974Z,27.00
2024-02-16T05:55:03.895Z,27.01
2024-02-16T05:56:03.946Z,27.04
2024-02-16T05:57:04.028Z,27.01
2024-02-16T05:58:03.993Z,27.01
2024-02-16T05:59:03.998Z,27.04
2024-02-16T06:00:04.039Z,27.02
2024-02-16T06:01:04.182Z,27.03
2024-02-16T06:02:04.114Z,27.01
2024-02-16T06:03:04.143Z,27.05
2024-02-16T06:04:04.226Z,27.02
2024-02-16T06:05:04.230Z,27.04
2024-02-16T06:06:04.288Z,27.01
2024-02-16T06:07:04.319Z,27.02
2024-02-16T06:08:04.265Z,27.00
2024-02-16T06:09:04.359Z,26.98
2024-02-16T06:10:04.332Z,27.03
2024-02-16T06:11:04.381Z,27.00
2024-02-16T06:12:04.467Z,26.96
2024-02-16T06:13:04.457Z,27.06
2024-02-16T06:14:04.440Z,27.04
2024-02-16T06:15:04.505Z,27.01
2024-02-16T06:16:04.500Z,27.03
2024-02-16T06:17:04.556Z,26.99
2024-02-16T06:18:04.692Z,26.96
2024-02-16T06:19:04.741Z,27.02
2024-02-16T06:20:04.769Z,27.00
2024-02-16T06:21:04.713Z,27.02
2024-02-16T06:22:04.688Z,27.01
2024-02-16T06:23:04.718Z,27.02
2024-02-16T06:24:04.769Z,27.01
2024-02-16T06:25:04.813Z,27.02
2024-02-16T06:26:04.792Z,26.99
2024-02-16T06:27:04.816Z,27.01
2024-02-16T06:28:04.822Z,27.01
2024-02-16T06:29:04.836Z,26.98
2024-02-16T06:30:04.901Z,26.96
2024-02-16T06:31:04.928Z,26.99
2024-02-16T06:32:04.960Z,27.02
2024-02-16T06:33:05.037Z,26.96
2024-02-16T06:34:05.089Z,26.96
2024-02-16T06:35:05.145Z,27.01
2024-02-16T06:36:05.098Z,26.98
2024-02-16T06:37:05.018Z,27.01
2024-02-16T06:38:05.064Z,26.98
2024-02-16T06:39:05.117Z,26.95
2024-02-16T06:40:05.093Z,27.03
2024-02-16T06:41:05.141Z,26.96
2024-02-16T06:42:05.169Z,26.96
2024-02-16T06:43:05.178Z,26.99
2024-02-16T06:44:05.202Z,26.98
2024-02-16T06:45:05.270Z,27.02
2024-02-16T06:46:05.242Z,26.96
2024-02-16T06:47:05.252Z,26.96
2024-02-16T06:48:05.371Z,26.98
2024-02-16T06:49:05.343Z,26.95
2024-02-16T06:50:05.389Z,26.96
2024-02-16T06:51:07.152Z,26.98
2024-02-16T06:52:05.404Z,26.96
2024-02-16T06:53:05.382Z,26.96
2024-02-16T06:54:05.423Z,26.99
2024-02-16T06:55:05.388Z,26.98
2024-02-16T06:56:05.396Z,27.02
2024-02-16T06:57:05.437Z,26.95
2024-02-16T06:58:05.394Z,26.95
2024-02-16T06:59:05.433Z,26.99
2024-02-16T07:00:05.495Z,26.99
2024-02-16T07:01:05.492Z,26.93
2024-02-16T07:02:05.390Z,26.99
2024-02-16T07:03:05.461Z,26.96
2024-02-16T07:04:05.509Z,27.01
2024-02-16T07:05:05.483Z,26.96
2024-02-16T07:06:05.480Z,26.99
2024-02-16T07:07:05.486Z,26.99
2024-02-16T07:08:05.413Z,26.98
2024-02-16T07:09:05.456Z,26.96
2024-02-16T07:10:05.411Z,26.95
2024-02-16T07:11:05.463Z,26.94
2024-02-16T07:12:05.439Z,26.96
2024-02-16T07:13:05.455Z,26.93
2024-02-16T07:14:05.454Z,26.96
2024-02-16T07:15:05.442Z,26.98
2024-02-16T07:16:05.450Z,26.91
2024-02-16T07:17:05.436Z,26.88
2024-02-16T07:18:05.647Z,26.94
2024-02-16T07:19:05.487Z,26.93
2024-02-16T07:20:05.534Z,26.92
2024-02-16T07:21:05.465Z,26.93
2024-02-16T07:22:05.453Z,26.97
2024-02-16T07:23:05.505Z,26.93
2024-02-16T07:24:05.479Z,26.92
2024-02-16T07:25:05.423Z,26.91
2024-02-16T07:26:07.456Z,26.95
2024-02-16T07:27:05.636Z,26.91
2024-02-16T07:28:05.592Z,26.93
2024-02-16T07:29:05.665Z,26.93
2024-02-16T07:30:05.770Z,26.93
2024-02-16T07:31:05.810Z,26.90
2024-02-16T07:32:05.781Z,26.92
2024-02-16T07:33:05.851Z,26.90
2024-02-16T07:34:05.929Z,26.98
2024-02-16T07:35:05.844Z,26.91
2024-02-16T07:36:05.826Z,26.93
2024-02-16T07:37:05.846Z,26.93
2024-02-16T07:38:05.867Z,26.92
2024-02-16T07:39:06.021Z,26.91
2024-02-16T07:40:05.902Z,26.90
2024-02-16T07:41:08.367Z,26.94
2024-02-16T07:42:05.981Z,26.93
2024-02-16T07:43:05.954Z,26.94
2024-02-16T07:44:05.927Z,26.90
2024-02-16T07:45:05.962Z,26.95
2024-02-16T07:46:06.278Z,26.95
2024-02-16T07:47:05.935Z,26.91
2024-02-16T07:48:06.093Z,26.93
2024-02-16T07:49:06.154Z,26.93
2024-02-16T07:50:05.981Z,26.91
2024-02-16T07:51:06.051Z,26.91
2024-02-16T07:52:05.977Z,26.94
2024-02-16T07:53:05.977Z,26.93
2024-02-16T07:54:06.009Z,26.93
2024-02-16T07:55:05.980Z,26.91
2024-02-16T07:56:05.993Z,26.94
2024-02-16T07:57:05.976Z,26.91
2024-02-16T07:58:05.999Z,26.91
2024-02-16T07:59:05.961Z,26.91
2024-02-16T08:00:05.997Z,26.92
2024-02-16T08:01:06.021Z,26.91
2024-02-16T08:02:05.968Z,26.90
2024-02-16T08:03:05.993Z,26.88
2024-02-16T08:04:06.884Z,26.91
2024-02-16T08:05:06.034Z,26.84
2024-02-16T08:06:06.104Z,26.90
2024-02-16T08:07:06.100Z,26.93
2024-02-16T08:08:05.994Z,26.88
2024-02-16T08:09:05.999Z,26.88
2024-02-16T08:10:05.994Z,26.88
2024-02-16T08:11:06.016Z,26.88
2024-02-16T08:12:06.088Z,26.91
2024-02-16T08:13:06.003Z,26.91
2024-02-16T08:14:05.978Z,26.91
2024-02-16T08:15:05.987Z,26.91
2024-02-16T08:16:06.005Z,26.87
2024-02-16T08:17:12.169Z,26.94
2024-02-16T08:18:07.194Z,26.90
2024-02-16T08:19:06.079Z,26.88
2024-02-16T08:20:07.625Z,26.91
2024-02-16T08:21:06.042Z,26.90
2024-02-16T08:22:06.017Z,26.94
2024-02-16T08:23:05.983Z,26.95
2024-02-16T08:24:06.035Z,26.91
2024-02-16T08:25:06.018Z,26.94
2024-02-16T08:26:06.006Z,26.93
2024-02-16T08:27:05.995Z,26.94
2024-02-16T08:28:06.000Z,26.93
2024-02-16T08:29:05.994Z,26.90
2024-02-16T08:30:06.122Z,27.00
2024-02-16T08:31:06.008Z,26.97
2024-02-16T08:32:06.027Z,26.95
2024-02-16T08:33:06.061Z,26.95
2024-02-16T08:34:07.530Z,26.96
2024-02-16T08:35:06.139Z,26.97
2024-02-16T08:36:06.043Z,26.95
2024-02-16T08:37:06.112Z,26.94
2024-02-16T08:38:06.068Z,26.90
2024-02-16T08:39:06.036Z,26.97
2024-02-16T08:40:06.022Z,26.97
2024-02-16T08:41:06.013Z,27.01
2024-02-16T08:42:06.127Z,26.97
2024-02-16T08:43:06.030Z,27.05
2024-02-16T08:44:06.053Z,27.00
2024-02-16T08:45:06.127Z,26.97
2024-02-16T08:46:06.050Z,27.02
2024-02-16T08:47:06.020Z,27.01
2024-02-16T08:48:06.120Z,27.07
2024-02-16T08:49:06.173Z,27.05
2024-02-16T08:50:06.118Z,27.02
2024-02-16T08:51:06.045Z,27.12
2024-02-16T08:52:06.038Z,27.06
2024-02-16T08:53:06.037Z,27.07
2024-02-16T08:54:08.472Z,27.02
2024-02-16T08:55:06.048Z,27.06
2024-02-16T08:56:06.040Z,27.10
2024-02-16T08:57:06.073Z,27.06
2024-02-16T08:58:06.040Z,27.02
2024-02-16T08:59:06.054Z,27.11
2024-02-16T09:00:06.121Z,27.04
2024-02-16T09:01:06.130Z,27.12
2024-02-16T09:02:06.093Z,27.14
2024-02-16T09:03:06.098Z,27.12
2024-02-16T09:04:06.217Z,27.15
2024-02-16T09:05:06.139Z,27.13
2024-02-16T09:06:06.184Z,27.15
2024-02-16T09:07:06.229Z,27.15
2024-02-16T09:08:06.083Z,27.13
2024-02-16T09:09:06.101Z,27.12
2024-02-16T09:10:06.058Z,27.12
2024-02-16T09:11:06.104Z,27.15
2024-02-16T09:12:06.084Z,27.16
2024-02-16T09:13:06.061Z,27.13
2024-02-16T09:14:06.068Z,27.15
2024-02-16T09:15:06.079Z,27.15
2024-02-16T09:16:06.110Z,27.21
2024-02-16T09:17:06.078Z,27.21
2024-02-16T09:18:06.199Z,27.14
2024-02-16T09:19:06.313Z,27.18
2024-02-16T09:20:06.168Z,27.15
2024-02-16T09:21:06.104Z,27.20
2024-02-16T09:22:06.112Z,27.22
2024-02-16T09:23:06.084Z,27.20
2024-02-16T09:24:06.134Z,27.19
2024-02-16T09:25:06.118Z,27.25
2024-02-16T09:26:06.130Z,27.23
2024-02-16T09:27:06.235Z,27.22
2024-02-16T09:28:07.805Z,27.22
2024-02-16T09:29:06.121Z,27.22
2024-02-16T09:30:06.157Z,27.23
2024-02-16T09:31:06.119Z,27.23
2024-02-16T09:32:06.101Z,27.25
2024-02-16T09:33:06.218Z,27.26
2024-02-16T09:34:06.228Z,27.26
2024-02-16T09:35:06.199Z,27.28
2024-02-16T09:36:06.226Z,27.22
2024-02-16T09:37:06.128Z,27.25
2024-02-16T09:38:06.131Z,27.25
2024-02-16T09:39:06.181Z,27.25
2024-02-16T09:40:06.156Z,27.26
2024-02-16T09:41:06.160Z,27.28
2024-02-16T09:42:06.321Z,27.29
2024-02-16T09:43:06.182Z,27.26
2024-02-16T09:44:06.133Z,27.28
2024-02-16T09:45:06.147Z,27.25
2024-02-16T09:46:06.153Z,27.26
2024-02-16T09:47:06.122Z,27.29
2024-02-16T09:49:06.657Z,27.28
2024-02-16T09:50:06.451Z,27.28
2024-02-16T09:51:06.368Z,27.26
2024-02-16T09:52:06.169Z,27.26
2024-02-16T09:53:06.147Z,27.28
2024-02-16T09:54:06.263Z,27.25
2024-02-16T09:55:06.153Z,27.24
2024-02-16T09:56:06.142Z,27.26
2024-02-16T09:57:06.195Z,27.23
2024-02-16T09:58:06.197Z,27.26
2024-02-16T09:59:08.441Z,27.26
2024-02-16T10:00:06.185Z,27.22
2024-02-16T10:01:06.240Z,27.28
2024-02-16T10:02:06.161Z,27.28
2024-02-16T10:03:06.256Z,27.28
2024-02-16T10:04:06.175Z,27.25
2024-02-16T10:05:06.186Z,27.24
2024-02-16T10:06:06.419Z,27.26
2024-02-16T10:07:10.297Z,27.25
2024-02-16T10:08:07.193Z,27.21
2024-02-16T10:09:06.201Z,27.28
2024-02-16T10:10:06.230Z,27.25
2024-02-16T10:11:06.282Z,27.27
2024-02-16T10:12:06.287Z,27.24
2024-02-16T10:13:06.212Z,27.26
2024-02-16T10:14:06.195Z,27.20
2024-02-16T10:15:06.227Z,27.26
2024-02-16T10:16:06.218Z,27.21
2024-02-16T10:17:06.197Z,27.25
2024-02-16T10:18:06.345Z,27.21
2024-02-16T10:19:06.355Z,27.25
2024-02-16T10:20:06.250Z,27.24
2024-02-16T10:21:06.243Z,27.21
2024-02-16T10:22:06.200Z,27.24
2024-02-16T10:23:06.220Z,27.21
2024-02-16T10:24:06.213Z,27.29
2024-02-16T10:25:06.224Z,27.24
2024-02-16T10:26:06.235Z,27.24
2024-02-16T10:27:06.246Z,27.18
2024-02-16T10:28:06.222Z,27.26
2024-02-16T10:29:06.204Z,27.21
2024-02-16T10:30:06.256Z,27.22
2024-02-16T10:31:06.223Z,27.22
2024-02-16T10:32:06.231Z,27.20
2024-02-16T10:33:06.329Z,27.20
2024-02-16T10:34:06.443Z,27.21
2024-02-16T10:35:06.282Z,27.21
2024-02-16T10:36:06.564Z,27.20
2024-02-16T10:37:06.249Z,27.21
2024-02-16T10:38:06.229Z,27.17
2024-02-16T10:39:06.446Z,27.20
2024-02-16T10:40:06.360Z,27.21
2024-02-16T10:41:06.876Z,27.21
2024-02-16T10:42:06.322Z,27.21
2024-02-16T10:43:06.268Z,27.24
2024-02-16T10:44:06.252Z,27.20
2024-02-16T10:45:06.306Z,27.21
2024-02-16T10:46:06.236Z,27.20
2024-02-16T10:47:06.340Z,27.17
2024-02-16T10:48:06.323Z,27.24
2024-02-16T10:49:06.359Z,27.15
2024-02-16T10:50:06.362Z,27.18
2024-02-16T10:51:06.344Z,27.18
2024-02-16T10:52:06.292Z,27.24
2024-02-16T10:53:06.280Z,27.18
2024-02-16T10:54:06.396Z,27.14
2024-02-16T10:55:09.764Z,27.18
2024-02-16T10:56:06.286Z,27.21
2024-02-16T10:57:06.330Z,27.21
2024-02-16T10:58:06.301Z,27.18
2024-02-16T10:59:06.377Z,27.18
2024-02-16T11:00:06.327Z,27.20
2024-02-16T11:01:06.409Z,27.17
2024-02-16T11:02:06.367Z,27.14
2024-02-16T11:03:06.443Z,27.21
2024-02-16T11:04:06.515Z,27.14
2024-02-16T11:05:06.361Z,27.13
2024-02-16T11:06:06.408Z,27.11
2024-02-16T11:07:09.379Z,27.15
2024-02-16T11:08:06.354Z,27.17
2024-02-16T11:09:06.322Z,27.17
2024-02-16T11:10:06.317Z,27.18
2024-02-16T11:11:06.368Z,27.16
2024-02-16T11:12:06.435Z,27.16
2024-02-16T11:13:06.310Z,27.16
2024-02-16T11:14:06.309Z,27.17
2024-02-16T11:15:06.345Z,27.17
2024-02-16T11:16:06.323Z,27.13
2024-02-16T11:17:06.320Z,27.14
2024-02-16T11:18:06.401Z,27.14
2024-02-16T11:19:06.398Z,27.14
2024-02-16T11:20:06.354Z,27.16
2024-02-16T11:21:06.351Z,27.10
2024-02-16T11:22:06.328Z,27.16
2024-02-16T11:23:06.326Z,27.14
2024-02-16T11:24:06.386Z,27.13
2024-02-16T11:25:06.363Z,27.13
2024-02-16T11:26:06.330Z,27.13
2024-02-16T11:27:06.416Z,27.14
2024-02-16T11:28:06.351Z,27.11
2024-02-16T11:29:06.349Z,27.09
2024-02-16T11:30:06.472Z,27.07
2024-02-16T11:31:06.363Z,27.13
2024-02-16T11:32:06.361Z,27.10
2024-02-16T11:33:06.643Z,27.10
2024-02-16T11:34:06.500Z,27.10
2024-02-16T11:35:06.506Z,27.07
2024-02-16T11:36:06.439Z,27.11
2024-02-16T11:37:06.371Z,27.10
2024-02-16T11:38:06.352Z,27.11
2024-02-16T11:39:06.373Z,27.13
2024-02-16T11:40:06.364Z,27.11
2024-02-16T11:41:06.401Z,27.13
2024-02-16T11:42:06.414Z,27.09
2024-02-16T11:43:06.371Z,27.11
2024-02-16T11:44:06.370Z,27.11
2024-02-16T11:45:06.422Z,27.10
2024-02-16T11:46:06.378Z,27.11
2024-02-16T11:47:06.419Z,27.11
2024-02-16T11:48:06.503Z,27.10
2024-02-16T11:49:06.622Z,27.09
2024-02-16T11:50:06.781Z,27.11
2024-02-16T11:51:06.459Z,27.14
2024-02-16T11:52:06.414Z,27.17
2024-02-16T11:53:06.412Z,27.16
2024-02-16T11:54:06.423Z,27.15
2024-02-16T11:55:06.547Z,27.15
2024-02-16T11:56:06.402Z,27.20
2024-02-16T11:57:06.394Z,27.19
2024-02-16T11:58:06.393Z,27.14
2024-02-16T11:59:06.394Z,27.19
2024-02-16T12:00:06.410Z,27.20
2024-02-16T12:01:06.676Z,27.17
2024-02-16T12:02:06.431Z,27.21
2024-02-16T12:03:06.421Z,27.15
2024-02-16T12:04:06.425Z,27.19
2024-02-16T12:05:06.686Z,27.23
2024-02-16T12:06:06.596Z,27.23
2024-02-16T12:07:06.564Z,27.20
2024-02-16T12:08:06.471Z,27.17
2024-02-16T12:09:06.440Z,27.23
2024-02-16T12:10:06.528Z,27.22
2024-02-16T12:11:06.573Z,27.23
2024-02-16T12:12:06.455Z,27.20
2024-02-16T12:13:08.519Z,27.16
2024-02-16T12:14:06.427Z,27.19
2024-02-16T12:15:06.748Z,27.22
2024-02-16T12:16:06.444Z,27.22
2024-02-16T12:17:06.449Z,27.20
2024-02-16T12:18:06.585Z,27.29
2024-02-16T12:19:06.607Z,27.20
2024-02-16T12:20:06.575Z,27.23
2024-02-16T12:21:06.542Z,27.23
2024-02-16T12:22:06.495Z,27.23
2024-02-16T12:23:06.477Z,27.26
2024-02-16T12:24:06.484Z,27.24
2024-02-16T12:25:06.504Z,27.29
2024-02-16T12:26:06.466Z,27.27
2024-02-16T12:27:06.525Z,27.30
2024-02-16T12:28:06.466Z,27.26
2024-02-16T12:29:06.483Z,27.28
2024-02-16T12:30:06.499Z,27.33
2024-02-16T12:31:06.488Z,27.31
2024-02-16T12:32:06.498Z,27.27
2024-02-16T12:33:06.590Z,27.29
2024-02-16T12:34:06.589Z,27.27
2024-02-16T12:35:06.761Z,27.33
2024-02-16T12:36:06.543Z,27.31
2024-02-16T12:37:06.538Z,27.34
2024-02-16T12:38:06.525Z,27.33
2024-02-16T12:39:06.544Z,27.37
2024-02-16T12:40:06.523Z,27.36
2024-02-16T12:41:06.535Z,27.38
2024-02-16T12:42:06.529Z,27.44
2024-02-16T12:43:06.549Z,27.44
2024-02-16T12:44:06.534Z,27.44
2024-02-16T12:45:06.622Z,27.45
2024-02-16T12:46:06.571Z,27.50
2024-02-16T12:47:06.572Z,27.51
2024-02-16T12:48:06.752Z,27.51
2024-02-16T12:49:06.763Z,27.59
2024-02-16T12:50:06.771Z,27.58
2024-02-16T12:51:06.669Z,27.55
2024-02-16T12:52:06.620Z,27.54
2024-02-16T12:53:06.667Z,27.54
2024-02-16T12:54:06.754Z,27.51